createdAt,value
2022-12-25T00:01:45.544Z,283.93
2022-12-25T00:04:13.287Z,136.00
2022-12-25T00:06:40.668Z,133.73
2022-12-25T00:09:08.160Z,92.03
2022-12-25T00:11:37.235Z,39.20
2022-12-25T00:14:05.920Z,54.13
2022-12-25T00:16:33.431Z,257.87
2022-12-25T00:19:01.443Z,109.07
2022-12-25T00:21:28.869Z,123.70
2022-12-25T00:23:58.455Z,70.90
2022-12-25T00:26:27.339Z,18.00
2022-12-25T00:28:56.569Z,130.43
2022-12-25T00:31:24.673Z,293.00
2022-12-25T00:33:54.068Z,78.17
2022-12-25T00:36:22.811Z,127.73
2022-12-25T00:38:50.259Z,47.72
2022-12-25T00:41:41.208Z,27.33
2022-12-25T00:44:10.254Z,34.10
2022-12-25T00:49:05.733Z,20.00
2022-12-25T00:51:33.729Z,15.73
2022-12-25T00:54:01.918Z,16.83
2022-12-25T00:56:29.264Z,7.77
2022-12-25T00:58:56.730Z,11.43
2022-12-25T01:01:24.611Z,22.87
2022-12-25T01:03:52.107Z,35.87
2022-12-25T01:06:19.648Z,15.97
2022-12-25T01:09:05.884Z,15.67
2022-12-25T01:11:33.595Z,15.63
2022-12-25T01:14:01.548Z,12.33
2022-12-25T01:16:29.309Z,13.43
2022-12-25T01:18:56.806Z,11.43
2022-12-25T01:21:24.692Z,12.03
2022-12-25T01:23:53.339Z,15.50
2022-12-25T01:26:25.195Z,8.75
2022-12-25T01:28:53.567Z,9.47
2022-12-25T01:31:22.872Z,12.77
2022-12-25T01:36:26.083Z,13.93
2022-12-25T01:38:54.707Z,13.20
2022-12-25T01:41:24.696Z,7.53
2022-12-25T01:44:15.342Z,11.17
2022-12-25T01:46:44.274Z,13.93
2022-12-25T01:49:15.319Z,14.75
2022-12-25T01:51:50.470Z,15.70
2022-12-25T01:54:27.194Z,13.77
2022-12-25T01:56:59.964Z,12.27
2022-12-25T01:59:28.795Z,8.07
2022-12-25T02:01:57.285Z,10.63
2022-12-25T02:04:38.957Z,6.30
2022-12-25T02:07:22.150Z,9.83
2022-12-25T02:09:51.284Z,8.53
2022-12-25T02:12:22.343Z,9.40
2022-12-25T02:14:52.787Z,11.80
2022-12-25T02:18:07.451Z,9.37
2022-12-25T02:20:36.189Z,12.73
2022-12-25T02:23:28.028Z,10.80
2022-12-25T02:26:17.554Z,7.53
2022-12-25T02:28:56.266Z,12.02
2022-12-25T02:31:48.341Z,13.20
2022-12-25T02:34:51.523Z,13.83
2022-12-25T02:37:27.676Z,11.33
2022-12-25T02:40:04.460Z,11.13
2022-12-25T02:43:06.034Z,16.70
2022-12-25T02:46:05.230Z,16.07
2022-12-25T02:48:55.982Z,11.87
2022-12-25T02:51:45.023Z,13.00
2022-12-25T02:54:36.312Z,9.80
2022-12-25T02:57:28.340Z,12.67
2022-12-25T03:00:17.857Z,11.13
2022-12-25T03:03:06.653Z,14.02
2022-12-25T03:05:57.219Z,8.65
2022-12-25T03:08:34.096Z,5.23
2022-12-25T03:11:22.989Z,7.77
2022-12-25T03:13:54.038Z,8.77
2022-12-25T03:16:41.872Z,26.07
2022-12-25T03:19:27.728Z,11.93
2022-12-25T03:22:15.533Z,13.40
2022-12-25T03:25:01.843Z,15.77
2022-12-25T03:27:33.946Z,13.27
2022-12-25T03:30:20.619Z,11.67
2022-12-25T03:33:17.963Z,9.47
2022-12-25T03:36:05.714Z,10.57
2022-12-25T03:38:48.237Z,24.40
2022-12-25T03:41:40.062Z,18.00
2022-12-25T03:44:53.195Z,9.10
2022-12-25T03:47:35.456Z,13.97
2022-12-25T03:50:31.265Z,11.73
2022-12-25T03:53:20.379Z,15.63
2022-12-25T03:56:08.491Z,9.47
2022-12-25T03:59:08.257Z,5.47
2022-12-25T04:01:54.722Z,7.77
2022-12-25T04:04:40.911Z,7.87
2022-12-25T04:07:27.022Z,7.83
2022-12-25T04:10:14.794Z,5.70
2022-12-25T04:13:03.509Z,7.27
2022-12-25T04:15:50.295Z,7.67
2022-12-25T04:18:36.360Z,6.07
2022-12-25T04:21:22.516Z,7.87
2022-12-25T04:24:08.687Z,16.60
2022-12-25T04:26:54.820Z,15.47
2022-12-25T04:29:40.739Z,24.97
2022-12-25T04:32:26.862Z,28.57
2022-12-25T04:35:12.591Z,37.43
2022-12-25T04:37:40.212Z,31.57
2022-12-25T04:40:08.217Z,34.87
2022-12-25T04:42:35.466Z,30.27
2022-12-25T04:45:03.330Z,34.27
2022-12-25T04:47:30.694Z,23.93
2022-12-25T04:49:58.128Z,24.77
2022-12-25T04:52:25.759Z,53.43
2022-12-25T04:54:54.921Z,28.38
2022-12-25T04:57:22.332Z,20.93
2022-12-25T04:59:49.967Z,21.00
2022-12-25T05:02:17.294Z,22.60
2022-12-25T05:04:44.709Z,34.17
2022-12-25T05:07:12.376Z,31.67
2022-12-25T05:09:42.467Z,43.10
2022-12-25T05:12:11.326Z,48.93
2022-12-25T05:14:40.290Z,49.55
2022-12-25T05:17:08.189Z,58.33
2022-12-25T05:19:35.932Z,57.37
2022-12-25T05:22:03.789Z,49.37
2022-12-25T05:24:31.225Z,46.47
2022-12-25T05:26:58.761Z,48.60
2022-12-25T05:29:26.486Z,40.27
2022-12-25T05:31:53.841Z,34.70
2022-12-25T05:34:21.360Z,21.67
2022-12-25T05:36:49.088Z,61.63
2022-12-25T05:39:16.444Z,47.07
2022-12-25T05:41:43.814Z,61.77
2022-12-25T05:44:11.402Z,46.13
2022-12-25T05:46:38.850Z,51.03
2022-12-25T05:49:06.297Z,43.33
2022-12-25T05:51:34.206Z,42.37
2022-12-25T05:54:01.570Z,42.73
2022-12-25T05:56:28.956Z,36.80
2022-12-25T05:58:56.940Z,70.80
2022-12-25T06:01:26.604Z,81.03
2022-12-25T06:03:54.569Z,56.23
2022-12-25T06:06:22.297Z,96.13
2022-12-25T06:08:49.709Z,152.60
2022-12-25T06:11:17.454Z,120.67
2022-12-25T06:13:44.995Z,102.10
2022-12-25T06:16:13.103Z,159.50
2022-12-25T06:18:44.509Z,180.23
2022-12-25T06:21:13.782Z,115.57
2022-12-25T06:23:42.523Z,118.73
2022-12-25T06:26:12.758Z,126.40
2022-12-25T06:28:40.567Z,105.63
2022-12-25T06:31:17.739Z,98.87
2022-12-25T06:33:46.028Z,94.13
2022-12-25T06:36:16.647Z,78.12
2022-12-25T06:38:44.118Z,60.60
2022-12-25T06:41:17.038Z,52.00
2022-12-25T06:43:49.514Z,27.40
2022-12-25T06:46:17.704Z,19.87
2022-12-25T06:48:49.584Z,17.62
2022-12-25T06:51:22.512Z,23.60
2022-12-25T06:53:51.826Z,22.43
2022-12-25T06:56:24.307Z,9.52
2022-12-25T06:58:55.704Z,102.73
2022-12-25T07:01:28.569Z,94.90
2022-12-25T07:04:03.101Z,165.93
2022-12-25T07:06:30.767Z,44.03
2022-12-25T07:08:58.652Z,54.13
2022-12-25T07:11:27.019Z,101.80
2022-12-25T07:13:55.122Z,90.60
2022-12-25T07:16:22.821Z,56.27
2022-12-25T07:18:50.151Z,20.83
2022-12-25T07:21:19.229Z,10.30
2022-12-25T07:23:48.480Z,6.63
2022-12-25T07:28:44.896Z,8.82
2022-12-25T07:31:17.957Z,10.90
2022-12-25T07:33:45.723Z,10.63
2022-12-25T07:36:16.394Z,7.33
2022-12-25T07:38:48.105Z,5.30
2022-12-25T07:41:15.788Z,14.87
2022-12-25T07:43:43.359Z,15.57
2022-12-25T07:46:11.444Z,22.70
2022-12-25T07:48:40.601Z,13.77
2022-12-25T07:51:12.359Z,34.13
2022-12-25T07:53:40.860Z,12.20
2022-12-25T07:56:16.937Z,19.62
2022-12-25T07:58:45.872Z,11.67
2022-12-25T08:01:20.435Z,18.08
2022-12-25T08:03:56.195Z,14.03
2022-12-25T08:06:29.824Z,5.60
2022-12-25T08:09:03.554Z,7.67
2022-12-25T08:11:35.931Z,5.77
2022-12-25T08:14:08.464Z,9.93
2022-12-25T08:16:36.676Z,5.53
2022-12-25T08:19:04.479Z,3.87
2022-12-25T08:21:31.893Z,7.53
2022-12-25T08:23:59.208Z,6.60
2022-12-25T08:26:26.863Z,4.63
2022-12-25T08:39:46.678Z,6.47
2022-12-25T08:42:15.472Z,6.70
2022-12-25T08:44:42.855Z,6.33
2022-12-25T08:47:10.381Z,7.50
2022-12-25T08:49:38.144Z,11.37
2022-12-25T08:52:05.755Z,12.57
2022-12-25T08:54:34.979Z,4.57
2022-12-25T08:57:03.898Z,3.03
2022-12-25T08:59:31.727Z,7.22
2022-12-25T09:01:59.337Z,3.93
2022-12-25T09:04:27.669Z,3.85
2022-12-25T09:06:55.156Z,3.10
2022-12-25T09:09:29.850Z,7.20
2022-12-25T09:11:57.580Z,4.87
2022-12-25T09:14:25.031Z,3.23
2022-12-25T09:16:52.257Z,2.83
2022-12-25T09:19:20.155Z,3.83
2022-12-25T09:21:47.875Z,4.73
2022-12-25T09:24:15.221Z,7.07
2022-12-25T09:26:42.842Z,7.77
2022-12-25T09:29:10.252Z,4.00
2022-12-25T09:31:37.981Z,3.07
2022-12-25T09:34:06.050Z,5.60
2022-12-25T09:36:33.472Z,5.53
2022-12-25T09:39:00.907Z,3.53
2022-12-25T09:41:31.684Z,5.60
2022-12-25T09:44:02.585Z,8.93
2022-12-25T09:46:39.073Z,7.57
2022-12-25T09:49:40.009Z,4.53
2022-12-25T09:52:33.060Z,3.50
2022-12-25T09:55:20.880Z,3.53
2022-12-25T09:57:58.127Z,3.50
2022-12-25T10:00:32.304Z,2.37
2022-12-25T10:03:27.069Z,4.33
2022-12-25T10:06:11.435Z,2.10
2022-12-25T10:09:07.716Z,3.90
2022-12-25T10:12:06.876Z,4.20
2022-12-25T10:14:56.436Z,4.43
2022-12-25T10:17:36.776Z,4.00
2022-12-25T10:20:08.547Z,3.47
2022-12-25T10:22:42.663Z,3.83
2022-12-25T10:25:18.005Z,3.97
2022-12-25T10:27:53.110Z,9.33
2022-12-25T10:30:25.869Z,3.27
2022-12-25T10:32:57.244Z,5.13
2022-12-25T10:35:28.425Z,5.40
2022-12-25T10:38:09.738Z,7.43
2022-12-25T10:40:52.253Z,4.57
2022-12-25T10:43:47.539Z,4.87
2022-12-25T10:46:16.949Z,4.47
2022-12-25T10:48:59.168Z,5.75
2022-12-25T10:51:44.943Z,4.13
2022-12-25T10:54:35.876Z,2.47
2022-12-25T10:57:17.221Z,4.27
2022-12-25T10:59:52.106Z,4.53
2022-12-25T11:02:28.858Z,6.13
2022-12-25T11:05:02.617Z,5.10
2022-12-25T11:07:32.096Z,3.77
2022-12-25T11:12:42.284Z,3.20
2022-12-25T11:15:43.260Z,5.23
2022-12-25T11:18:21.902Z,3.13
2022-12-25T11:20:58.254Z,5.95
2022-12-25T11:23:29.464Z,5.93
2022-12-25T11:25:57.709Z,14.23
2022-12-25T11:28:26.506Z,3.97
2022-12-25T11:31:09.475Z,4.70
2022-12-25T11:33:42.714Z,3.30
2022-12-25T11:36:20.183Z,2.37
2022-12-25T11:38:48.091Z,4.10
2022-12-25T11:41:20.765Z,4.87
2022-12-25T11:43:59.453Z,5.47
2022-12-25T11:46:35.486Z,5.18
2022-12-25T11:49:08.577Z,5.23
2022-12-25T11:51:39.801Z,4.87
2022-12-25T11:54:19.401Z,6.05
2022-12-25T11:56:47.088Z,5.97
2022-12-25T11:59:42.791Z,3.40
2022-12-25T12:02:40.195Z,2.75
2022-12-25T12:05:16.290Z,4.55
2022-12-25T12:08:05.170Z,2.60
2022-12-25T12:11:16.495Z,4.32
2022-12-25T12:14:06.961Z,5.50
2022-12-25T12:16:35.709Z,5.75
2022-12-25T12:19:29.366Z,9.15
2022-12-25T12:22:00.879Z,4.28
2022-12-25T12:24:53.345Z,7.05
2022-12-25T12:27:31.209Z,3.92
2022-12-25T12:30:00.224Z,4.78
2022-12-25T12:32:43.183Z,5.03
2022-12-25T12:35:15.732Z,8.00
2022-12-25T12:37:47.245Z,5.65
2022-12-25T12:40:25.804Z,2.78
2022-12-25T12:42:55.049Z,3.22
2022-12-25T12:47:57.129Z,5.95
2022-12-25T12:50:28.171Z,4.07
2022-12-25T12:52:56.417Z,4.72
2022-12-25T12:55:34.887Z,3.63
2022-12-25T13:00:49.163Z,4.30
2022-12-25T13:03:45.359Z,3.03
2022-12-25T13:06:59.026Z,2.62
2022-12-25T13:09:41.063Z,4.70
2022-12-25T13:12:12.212Z,5.93
2022-12-25T13:14:46.266Z,7.65
2022-12-25T13:17:18.652Z,6.78
2022-12-25T13:19:48.430Z,4.78
2022-12-25T13:22:50.667Z,6.57
2022-12-25T13:25:24.294Z,6.43
2022-12-25T13:27:56.979Z,4.87
2022-12-25T13:30:25.820Z,6.37
2022-12-25T13:32:53.670Z,6.95
2022-12-25T13:35:23.262Z,8.45
2022-12-25T13:37:51.490Z,5.27
2022-12-25T13:40:26.400Z,6.30
2022-12-25T13:42:59.963Z,9.73
2022-12-25T13:45:31.476Z,11.40
2022-12-25T13:48:14.913Z,11.63
2022-12-25T13:50:48.641Z,12.10
2022-12-25T13:53:17.988Z,17.30
2022-12-25T13:55:52.766Z,9.38
2022-12-25T13:58:31.013Z,17.07
2022-12-25T14:01:00.311Z,14.23
2022-12-25T14:03:41.752Z,9.00
2022-12-25T14:06:26.231Z,8.90
2022-12-25T14:08:58.881Z,17.17
2022-12-25T14:11:33.613Z,19.97
2022-12-25T14:14:14.993Z,18.83
2022-12-25T14:16:44.934Z,16.80
2022-12-25T14:19:31.340Z,18.33
2022-12-25T14:22:11.402Z,17.83
2022-12-25T14:24:40.707Z,21.23
2022-12-25T14:27:22.218Z,23.35
2022-12-25T14:29:53.604Z,21.57
2022-12-25T14:32:24.203Z,26.23
2022-12-25T14:34:55.864Z,21.87
2022-12-25T14:37:28.376Z,26.67
2022-12-25T14:40:05.339Z,19.87
2022-12-25T14:42:38.085Z,19.13
2022-12-25T14:45:30.080Z,21.23
2022-12-25T14:48:04.348Z,19.03
2022-12-25T14:50:37.482Z,14.57
2022-12-25T14:53:06.592Z,12.43
2022-12-25T14:55:34.449Z,10.77
2022-12-25T14:58:05.532Z,14.00
2022-12-25T15:00:40.430Z,26.67
2022-12-25T15:03:21.082Z,42.87
2022-12-25T15:05:58.985Z,22.53
2022-12-25T15:08:27.204Z,36.67
2022-12-25T15:11:01.851Z,38.80
2022-12-25T15:13:31.686Z,21.40
2022-12-25T15:16:05.959Z,20.52
2022-12-25T15:18:38.521Z,29.53
2022-12-25T15:21:06.229Z,28.60
2022-12-25T15:23:33.964Z,21.83
2022-12-25T15:26:01.289Z,31.73
2022-12-25T15:28:28.598Z,36.73
2022-12-25T15:30:56.526Z,36.63
2022-12-25T15:33:24.011Z,29.30
2022-12-25T15:35:51.381Z,25.73
2022-12-25T15:38:19.024Z,31.57
2022-12-25T15:40:47.353Z,34.60
2022-12-25T15:43:39.479Z,28.90
2022-12-25T15:46:03.221Z,39.90
2022-12-25T15:48:30.533Z,41.50
2022-12-25T15:50:57.924Z,39.27
2022-12-25T15:53:27.108Z,53.10
2022-12-25T15:55:54.572Z,63.60
2022-12-25T15:58:21.933Z,72.33
2022-12-25T16:00:50.910Z,71.37
2022-12-25T16:03:18.602Z,58.92
2022-12-25T16:05:45.951Z,83.47
2022-12-25T16:08:13.290Z,82.93
2022-12-25T16:10:40.956Z,88.43
2022-12-25T16:13:08.308Z,104.10
2022-12-25T16:15:37.892Z,100.53
2022-12-25T16:18:06.724Z,63.77
2022-12-25T16:20:35.741Z,61.28
2022-12-25T16:23:03.170Z,41.17
2022-12-25T16:25:31.047Z,39.27
2022-12-25T16:27:58.408Z,57.13
2022-12-25T16:30:25.773Z,69.67
2022-12-25T16:32:54.227Z,73.07
2022-12-25T16:35:21.644Z,179.90
2022-12-25T16:37:49.768Z,122.33
2022-12-25T16:40:18.209Z,116.37
2022-12-25T16:42:45.795Z,130.67
2022-12-25T16:45:13.687Z,151.70
2022-12-25T16:47:41.550Z,136.10
2022-12-25T16:50:09.825Z,162.77
2022-12-25T16:52:37.180Z,125.97
2022-12-25T16:55:05.234Z,113.07
2022-12-25T16:57:32.904Z,105.00
2022-12-25T17:00:00.226Z,123.47
2022-12-25T17:02:28.031Z,257.00
2022-12-25T17:04:55.415Z,168.33
2022-12-25T17:07:22.713Z,169.77
2022-12-25T17:09:50.754Z,176.70
2022-12-25T17:12:18.908Z,154.07
2022-12-25T17:14:46.403Z,98.10
2022-12-25T17:17:14.251Z,112.33
2022-12-25T17:19:41.923Z,101.77
2022-12-25T17:22:09.387Z,86.00
2022-12-25T17:24:37.730Z,71.33
2022-12-25T17:27:08.730Z,88.10
2022-12-25T17:29:40.179Z,83.07
2022-12-25T17:32:09.193Z,74.53
2022-12-25T17:34:37.680Z,84.72
2022-12-25T17:37:05.465Z,73.18
2022-12-25T17:39:33.138Z,93.90
2022-12-25T17:42:01.756Z,178.55
2022-12-25T17:44:29.012Z,138.47
2022-12-25T17:46:56.828Z,107.53
2022-12-25T17:49:24.514Z,107.30
2022-12-25T17:51:53.624Z,98.20
2022-12-25T17:56:49.556Z,93.03
2022-12-25T17:59:23.332Z,83.20
2022-12-25T18:01:51.021Z,92.80
2022-12-25T18:04:18.820Z,93.23
2022-12-25T18:06:46.302Z,98.93
2022-12-25T18:09:14.092Z,146.60
2022-12-25T18:11:44.077Z,230.27
2022-12-25T18:14:13.912Z,192.80
2022-12-25T18:16:43.493Z,152.80
2022-12-25T18:19:12.639Z,116.07
2022-12-25T18:21:40.048Z,74.93
2022-12-25T18:24:08.683Z,56.10
2022-12-25T18:26:36.543Z,60.07
2022-12-25T18:29:04.567Z,75.10
2022-12-25T18:31:32.348Z,96.20
2022-12-25T18:34:00.231Z,150.60
2022-12-25T18:36:28.818Z,138.67
2022-12-25T18:38:58.120Z,125.75
2022-12-25T18:41:25.830Z,119.28
2022-12-25T18:43:55.495Z,129.60
2022-12-25T18:46:25.858Z,111.37
2022-12-25T18:48:55.948Z,72.73
2022-12-25T18:51:24.490Z,75.97
2022-12-25T18:53:51.888Z,77.73
2022-12-25T18:56:20.101Z,104.60
2022-12-25T18:58:48.512Z,67.47
2022-12-25T19:01:22.735Z,61.77
2022-12-25T19:03:51.479Z,58.60
2022-12-25T19:06:21.629Z,69.30
2022-12-25T19:08:50.466Z,169.70
2022-12-25T19:11:21.874Z,158.23
2022-12-25T19:13:49.879Z,175.83
2022-12-25T19:18:46.861Z,389.63
2022-12-25T19:21:14.249Z,240.67
2022-12-25T19:23:41.868Z,152.80
2022-12-25T19:26:10.688Z,105.87
2022-12-25T19:28:39.582Z,108.70
2022-12-25T19:31:08.964Z,106.00
2022-12-25T19:33:40.575Z,113.60
2022-12-25T19:36:11.890Z,100.43
2022-12-25T19:38:39.474Z,90.40
2022-12-25T19:41:16.502Z,90.17
2022-12-25T19:43:47.809Z,69.67
2022-12-25T19:46:21.283Z,161.17
2022-12-25T19:48:49.049Z,263.90
2022-12-25T19:51:26.415Z,288.43
2022-12-25T19:53:56.547Z,252.63
2022-12-25T19:56:25.274Z,213.67
2022-12-25T19:58:52.991Z,197.80
2022-12-25T20:01:23.107Z,198.77
2022-12-25T20:03:51.307Z,152.87
2022-12-25T20:06:26.116Z,111.33
2022-12-25T20:08:56.693Z,68.43
2022-12-25T20:11:26.876Z,49.93
2022-12-25T20:13:55.910Z,46.70
2022-12-25T20:16:24.344Z,50.50
2022-12-25T20:18:52.029Z,161.85
2022-12-25T20:21:22.098Z,214.13
2022-12-25T20:23:51.948Z,226.90
2022-12-25T20:26:23.363Z,176.13
2022-12-25T20:28:51.475Z,157.60
2022-12-25T20:31:27.478Z,147.93
2022-12-25T20:33:57.117Z,116.13
2022-12-25T20:36:24.826Z,122.40
2022-12-25T20:38:53.179Z,109.65
2022-12-25T20:41:27.420Z,115.67
2022-12-25T20:43:56.345Z,123.77
2022-12-25T20:46:25.340Z,153.73
2022-12-25T20:48:53.259Z,159.90
2022-12-25T20:51:26.407Z,136.47
2022-12-25T20:53:55.276Z,180.90
2022-12-25T20:56:24.891Z,150.70
2022-12-25T20:58:58.608Z,106.10
2022-12-25T21:01:28.249Z,127.40
2022-12-25T21:03:56.274Z,127.37
2022-12-25T21:06:24.115Z,98.87
2022-12-25T21:08:51.909Z,94.87
2022-12-25T21:11:22.335Z,91.20
2022-12-25T21:13:50.473Z,95.43
2022-12-25T21:16:21.782Z,93.07
2022-12-25T21:18:50.981Z,76.23
2022-12-25T21:21:19.538Z,59.60
2022-12-25T21:23:47.672Z,155.18
2022-12-25T21:26:20.127Z,170.63
2022-12-25T21:28:49.363Z,102.17
2022-12-25T21:31:16.945Z,90.80
2022-12-25T21:33:54.627Z,67.37
2022-12-25T21:36:30.776Z,94.87
2022-12-25T21:39:07.701Z,106.43
2022-12-25T21:41:38.017Z,74.30
2022-12-25T21:44:06.289Z,59.77
2022-12-25T21:46:33.856Z,52.07
2022-12-25T21:49:01.831Z,45.30
2022-12-25T21:51:51.727Z,46.07
2022-12-25T21:54:21.782Z,61.97
2022-12-25T21:56:49.487Z,62.00
2022-12-25T21:59:19.477Z,61.70
2022-12-25T22:01:49.915Z,79.13
2022-12-25T22:04:19.546Z,87.33
2022-12-25T22:07:06.021Z,82.45
2022-12-25T22:09:34.029Z,67.43
2022-12-25T22:12:26.034Z,64.33
2022-12-25T22:15:02.960Z,76.37
2022-12-25T22:17:58.254Z,95.87
2022-12-25T22:20:30.228Z,99.43
2022-12-25T22:22:58.215Z,107.13
2022-12-25T22:25:26.537Z,79.03
2022-12-25T22:27:54.484Z,134.17
2022-12-25T22:30:28.688Z,179.35
2022-12-25T22:32:56.860Z,155.60
2022-12-25T22:35:24.394Z,140.83
2022-12-25T22:37:53.660Z,120.73
2022-12-25T22:42:48.664Z,81.93
2022-12-25T22:45:16.248Z,83.70
2022-12-25T22:47:43.928Z,68.43
2022-12-25T22:50:13.076Z,59.70
2022-12-25T22:52:40.884Z,44.47
2022-12-25T22:55:10.114Z,37.90
2022-12-25T22:57:37.598Z,42.22
2022-12-25T23:00:06.546Z,42.70
2022-12-25T23:02:35.549Z,60.20
2022-12-25T23:05:03.653Z,103.60
2022-12-25T23:07:31.090Z,109.47
2022-12-25T23:09:59.558Z,57.50
2022-12-25T23:12:46.353Z,49.33
2022-12-25T23:15:14.107Z,53.47
2022-12-25T23:18:00.079Z,66.37
2022-12-25T23:20:46.201Z,83.33
2022-12-25T23:23:34.560Z,59.27
2022-12-25T23:26:09.698Z,58.50
2022-12-25T23:28:57.487Z,49.43
2022-12-25T23:31:31.093Z,65.23
2022-12-25T23:33:58.827Z,62.87
2022-12-25T23:36:27.415Z,66.62
2022-12-25T23:38:54.832Z,69.87
2022-12-25T23:41:22.155Z,82.07
2022-12-25T23:43:49.987Z,92.20
2022-12-25T23:46:17.522Z,115.17
2022-12-25T23:48:45.074Z,87.43
2022-12-25T23:51:12.776Z,95.67
2022-12-25T23:53:40.149Z,100.27
2022-12-25T23:56:07.558Z,95.27
2022-12-25T23:58:35.174Z,86.57
